createdAt,value
2023-04-15T20:20:59.344Z,49.4619
2023-04-15T20:21:52.679Z,49.4302
2023-04-15T20:22:55.032Z,49.5115
2023-04-15T20:23:57.647Z,49.6177
2023-04-15T20:25:00.213Z,49.5898
2023-04-15T20:26:02.808Z,49.6052
2023-04-15T20:27:05.356Z,49.5875
2023-04-15T20:28:07.956Z,49.6242
2023-04-15T20:29:10.515Z,49.6487
2023-04-15T20:30:13.101Z,49.6558
2023-04-15T20:31:15.696Z,49.6996
2023-04-15T20:32:18.296Z,49.7252
2023-04-15T20:33:20.816Z,49.7864
2023-04-15T20:34:23.418Z,49.9040
2023-04-15T20:35:25.963Z,49.9150
2023-04-15T20:36:28.567Z,49.9759
2023-04-15T20:37:31.119Z,50.0451
2023-04-15T20:38:33.723Z,50.1638
2023-04-15T20:39:36.282Z,50.1125
2023-04-15T20:40:40.545Z,50.0573
2023-04-15T20:41:41.451Z,50.1535
2023-04-15T20:42:44.034Z,50.1945
2023-04-15T20:43:46.589Z,50.2011
2023-04-15T20:44:49.181Z,50.2312
2023-04-15T20:45:51.750Z,50.2889
2023-04-15T20:46:54.523Z,50.3576
2023-04-15T20:47:56.926Z,50.4080
2023-04-15T20:48:59.502Z,50.4553
2023-04-15T20:50:02.338Z,50.4894
2023-04-15T20:51:04.658Z,50.5482
2023-04-15T20:52:07.228Z,50.6959
2023-04-15T20:53:09.829Z,50.5690
2023-04-15T20:54:12.397Z,50.6155
2023-04-15T20:55:14.991Z,50.6625
2023-04-15T20:56:17.523Z,50.6875
2023-04-15T20:57:20.162Z,50.8225
2023-04-15T20:58:22.675Z,49.8831
2023-04-15T20:59:25.283Z,48.7450
2023-04-15T21:00:27.893Z,49.4043
2023-04-15T21:01:30.441Z,50.0065
2023-04-15T21:02:33.089Z,50.1235
2023-04-15T21:03:35.659Z,50.0207
2023-04-15T21:04:38.167Z,50.3170
2023-04-15T21:05:40.761Z,50.6716
2023-04-15T21:06:43.317Z,51.3359
2023-04-15T21:07:45.984Z,51.8152
2023-04-15T21:08:48.515Z,51.5590
2023-04-15T21:09:51.065Z,51.1817
2023-04-15T21:10:53.619Z,50.7605
2023-04-15T21:12:00.979Z,50.4722
2023-04-15T21:12:59.781Z,50.1932
2023-04-15T21:14:01.389Z,49.9282
2023-04-15T21:15:03.942Z,49.7446
2023-04-15T21:16:07.943Z,49.5850
2023-04-15T21:17:11.223Z,49.4584
2023-04-15T21:18:11.689Z,49.3910
2023-04-15T21:19:14.246Z,49.3748
2023-04-15T21:20:16.858Z,49.3738
2023-04-15T21:21:19.402Z,49.3684
2023-04-15T21:22:22.009Z,49.3392
2023-04-15T21:23:24.550Z,49.3345
2023-04-15T21:24:27.149Z,49.3527
2023-04-15T21:25:29.701Z,49.3299
2023-04-15T21:26:32.324Z,49.3063
2023-04-15T21:27:34.856Z,49.3008
2023-04-15T21:28:37.464Z,49.3312
2023-04-15T21:29:40.015Z,49.3311
2023-04-15T21:30:42.652Z,49.3462
2023-04-15T21:31:45.222Z,49.3330
2023-04-15T21:32:47.822Z,49.3297
2023-04-15T21:33:50.337Z,49.3467
2023-04-15T21:34:53.203Z,49.3620
2023-04-15T21:35:55.474Z,49.3710
2023-04-15T21:36:58.075Z,49.3610
2023-04-15T21:38:00.632Z,49.3989
2023-04-15T21:39:03.323Z,49.4066
2023-04-15T21:40:05.773Z,49.4119
2023-04-15T21:41:08.390Z,49.4358
2023-04-15T21:42:10.945Z,49.4580
2023-04-15T21:43:13.595Z,49.5129
2023-04-15T21:44:16.196Z,49.5413
2023-04-15T21:45:18.701Z,49.5801
2023-04-15T21:46:25.305Z,49.6321
2023-04-15T21:47:23.888Z,49.7594
2023-04-15T21:48:26.444Z,49.8478
2023-04-15T21:49:29.014Z,49.8091
2023-04-15T21:50:31.579Z,49.8331
2023-04-15T21:51:34.170Z,49.9553
2023-04-15T21:52:36.705Z,50.0296
2023-04-15T21:53:39.306Z,49.9799
2023-04-15T21:54:41.862Z,50.0424
2023-04-15T21:55:44.458Z,49.9763
2023-04-15T21:56:47.017Z,50.0730
2023-04-15T21:57:49.624Z,50.1188
2023-04-15T21:58:52.176Z,50.0655
2023-04-15T21:59:54.786Z,50.0607
2023-04-15T22:00:57.427Z,50.0522
2023-04-15T22:02:00.108Z,49.9949
2023-04-15T22:03:02.654Z,49.9844
2023-04-15T22:04:05.167Z,49.9957
2023-04-15T22:05:07.645Z,49.9565
2023-04-15T22:06:10.286Z,50.0303
2023-04-15T22:07:12.806Z,50.0550
2023-04-15T22:08:15.420Z,50.0607
2023-04-15T22:09:18.042Z,49.9233
2023-04-15T22:10:20.897Z,49.9468
2023-04-15T22:11:23.175Z,48.9114
2023-04-15T22:12:25.739Z,48.5718
2023-04-15T22:13:28.288Z,48.7667
2023-04-15T22:14:30.906Z,49.1111
2023-04-15T22:15:33.449Z,49.6599
2023-04-15T22:16:36.118Z,50.5008
2023-04-15T22:17:38.655Z,50.6560
2023-04-15T22:18:41.312Z,50.5750
2023-04-15T22:19:43.759Z,50.3763
2023-04-15T22:20:46.371Z,50.1651
2023-04-15T22:21:48.920Z,49.9386
2023-04-15T22:22:54.413Z,49.7811
2023-04-15T22:24:34.979Z,49.5857
2023-04-15T22:24:57.680Z,49.5180
2023-04-15T22:25:59.247Z,49.4624
2023-04-15T22:27:01.851Z,49.4012
2023-04-15T22:28:04.405Z,49.3664
2023-04-15T22:29:07.249Z,49.3403
2023-04-15T22:30:09.558Z,49.1657
2023-04-15T22:31:12.180Z,49.2074
2023-04-15T22:32:14.719Z,49.2823
2023-04-15T22:33:17.341Z,49.2880
2023-04-15T22:34:19.896Z,49.3113
2023-04-15T22:35:22.493Z,49.3477
2023-04-15T22:36:25.049Z,49.3679
2023-04-15T22:37:27.650Z,49.3587
2023-04-15T22:38:30.192Z,49.3499
2023-04-15T22:39:32.810Z,49.3665
2023-04-15T22:40:35.371Z,49.4131
2023-04-15T22:41:37.966Z,49.4528
2023-04-15T22:42:40.524Z,49.4766
2023-04-15T22:43:43.120Z,49.4742
2023-04-15T22:44:45.684Z,49.4609
2023-04-15T22:45:48.316Z,49.4405
2023-04-15T22:46:50.841Z,49.4381
2023-04-15T22:47:53.462Z,49.4101
2023-04-15T22:48:56.007Z,49.3744
2023-04-15T22:49:58.636Z,49.3709
2023-04-15T22:51:01.161Z,49.3476
2023-04-15T22:52:03.966Z,49.3336
2023-04-15T22:53:06.333Z,49.3233
2023-04-15T22:54:08.923Z,49.2941
2023-04-15T22:55:11.494Z,49.3769
2023-04-15T22:56:14.095Z,49.3927
2023-04-15T22:57:16.649Z,49.3774
2023-04-15T22:58:19.254Z,49.3950
2023-04-15T22:59:21.808Z,49.3889
2023-04-15T23:00:25.017Z,49.3955
2023-04-15T23:01:27.116Z,49.4091
2023-04-15T23:02:29.734Z,49.3746
2023-04-15T23:03:32.247Z,49.3397
2023-04-15T23:04:35.876Z,49.3091
2023-04-15T23:05:37.340Z,49.2839
2023-04-15T23:06:39.891Z,49.2645
2023-04-15T23:07:42.494Z,49.2532
2023-04-15T23:08:45.052Z,49.2415
2023-04-15T23:09:47.605Z,49.2533
2023-04-15T23:10:50.207Z,49.3259
2023-04-15T23:11:52.770Z,49.3492
2023-04-15T23:12:55.375Z,49.3782
2023-04-15T23:13:57.918Z,49.4420
2023-04-15T23:15:00.537Z,49.4570
2023-04-15T23:16:03.107Z,49.4425
2023-04-15T23:17:05.873Z,49.4821
2023-04-15T23:18:08.315Z,49.5366
2023-04-15T23:19:11.090Z,49.6173
2023-04-15T23:20:13.409Z,49.7392
2023-04-15T23:21:16.022Z,49.7698
2023-04-15T23:22:18.576Z,49.7801
2023-04-15T23:23:21.182Z,49.8099
2023-04-15T23:24:23.725Z,49.9019
2023-04-15T23:25:26.376Z,49.9602
2023-04-15T23:26:28.890Z,49.9550
2023-04-15T23:27:31.491Z,49.9705
2023-04-15T23:28:34.043Z,50.0366
2023-04-15T23:29:36.649Z,50.0412
2023-04-15T23:30:39.203Z,50.0580
2023-04-15T23:31:41.909Z,50.0382
2023-04-15T23:32:44.422Z,50.0680
2023-04-15T23:33:46.980Z,50.1345
2023-04-15T23:34:49.525Z,50.1114
2023-04-15T23:35:52.143Z,50.1155
2023-04-15T23:36:54.686Z,50.2297
2023-04-15T23:37:57.557Z,50.2670
2023-04-15T23:38:59.858Z,50.3014
2023-04-15T23:40:02.462Z,50.3640
2023-04-15T23:41:05.017Z,50.4657
2023-04-15T23:42:07.618Z,50.5349
2023-04-15T23:43:10.169Z,50.5673
2023-04-15T23:44:12.774Z,50.6432
2023-04-15T23:45:15.323Z,50.7071
2023-04-15T23:46:17.970Z,50.7155
2023-04-15T23:47:20.493Z,50.7535
2023-04-15T23:48:23.650Z,50.8248
2023-04-15T23:49:25.652Z,50.8820
2023-04-15T23:50:28.276Z,50.8730
2023-04-15T23:51:30.815Z,50.8720
2023-04-15T23:52:33.413Z,50.8880
2023-04-15T23:53:35.967Z,50.9121
2023-04-15T23:54:38.552Z,50.9420
2023-04-15T23:55:41.163Z,50.9576
2023-04-15T23:56:43.726Z,50.9952
2023-04-15T23:57:46.397Z,51.0538
2023-04-15T23:58:49.089Z,51.0756
2023-04-15T23:59:51.493Z,51.0732
